Time;durP1;ratioP1;P1;durP2;ratioP2;P2;SDS_P1;SDS_P2;PMS_P1;PMS_P2;Temp;Humidity;BMP_temperature;BMP_pressure;BME280_temperature;BME280_humidity;BME280_pressure;Samples;Min_cycle;Max_cycle;Signal;HPM_P1;HPM_P2
2021/06/26 03:32:45;;;;;;;13.67;12.17;;;;;;;21.56;59.99;99006.06;7258902;23;20252;-88
2021/06/26 03:36:07;;;;;;;15.30;13.67;;;;;;;21.33;60.11;99014.78;6850898;28;20212;-88
2021/06/26 03:39:28;;;;;;;14.73;13.33;;;;;;;21.49;60.51;99013.72;6847277;28;20205;-88
2021/06/26 03:42:50;;;;;;;14.53;13.00;;;;;;;21.27;61.19;98996.66;6845781;28;20234;-88
2021/06/26 03:46:12;;;;;;;14.30;12.80;;;;;;;21.27;61.07;99010.38;6846265;28;20201;-88
2021/06/26 03:49:37;;;;;;;15.03;13.43;;;;;;;21.17;61.60;99010.31;6843790;28;20214;-89
2021/06/26 03:52:58;;;;;;;15.43;12.30;;;;;;;21.38;60.93;99013.97;6846251;28;20229;-88
2021/06/26 03:56:20;;;;;;;14.63;12.83;;;;;;;21.06;61.22;99005.06;6845896;28;20562;-89
2021/06/26 03:59:51;;;;;;;19.17;14.80;;;;;;;21.11;61.54;99010.56;6846303;28;20203;-87
2021/06/26 04:03:15;;;;;;;13.30;11.93;;;;;;;21.05;61.76;99013.56;6845750;28;20217;-88
2021/06/26 04:06:38;;;;;;;16.80;13.13;;;;;;;21.08;61.65;99021.25;6846489;28;20212;-88
2021/06/26 04:10:00;;;;;;;14.27;12.20;;;;;;;21.35;60.59;99031.78;6855950;28;20205;-87
2021/06/26 04:13:21;;;;;;;14.23;12.60;;;;;;;21.41;60.22;99024.38;6888204;28;20221;-88
2021/06/26 04:16:43;;;;;;;13.83;12.33;;;;;;;21.26;60.30;99021.59;6899784;28;20223;-88
2021/06/26 04:20:06;;;;;;;14.10;12.37;;;;;;;21.19;60.75;99018.28;6899288;28;20219;-88
2021/06/26 04:23:29;;;;;;;16.23;14.13;;;;;;;21.06;61.15;99015.22;6898549;28;20232;-88
2021/06/26 04:26:51;;;;;;;15.57;12.97;;;;;;;21.14;60.14;99005.34;6899357;28;20662;-88
2021/06/26 04:30:14;;;;;;;14.93;13.23;;;;;;;21.20;61.13;99011.72;6899194;28;20204;-88
2021/06/26 04:33:35;;;;;;;13.17;11.77;;;;;;;21.20;60.52;99025.41;6883677;28;20209;-88
2021/06/26 04:36:58;;;;;;;12.93;11.73;;;;;;;21.42;59.97;99031.56;6873335;28;20216;-87
2021/06/26 04:40:21;;;;;;;14.37;12.40;;;;;;;21.02;60.21;99014.09;6875679;28;20681;-87
2021/06/26 04:43:42;;;;;;;15.47;13.17;;;;;;;21.19;61.07;99024.56;6884291;28;20201;-87
2021/06/26 04:47:04;;;;;;;14.00;12.53;;;;;;;21.45;60.00;99015.38;6880858;28;20240;-87
2021/06/26 04:50:26;;;;;;;13.53;11.10;;;;;;;21.45;59.42;99007.13;6876093;28;20209;-86
2021/06/26 04:53:49;;;;;;;14.67;11.33;;;;;;;21.51;59.03;99024.44;6871499;28;20210;-89
2021/06/26 04:57:12;;;;;;;13.80;12.50;;;;;;;21.16;60.61;99027.03;6872887;28;20189;-87
2021/06/26 05:00:33;;;;;;;14.13;12.63;;;;;;;21.21;61.23;99016.09;6872803;28;20227;-85
2021/06/26 05:03:55;;;;;;;14.57;12.97;;;;;;;21.17;60.60;99014.16;6871605;28;20223;-85
2021/06/26 05:07:17;;;;;;;15.73;13.30;;;;;;;21.42;59.91;99026.06;6872097;28;20232;-85
2021/06/26 05:10:38;;;;;;;13.90;12.13;;;;;;;21.82;59.78;99026.16;6870943;28;20225;-86
2021/06/26 05:14:01;;;;;;;13.97;12.57;;;;;;;21.74;60.19;99024.81;6871532;28;20757;-86
2021/06/26 05:17:23;;;;;;;14.13;12.33;;;;;;;21.94;59.33;99024.81;6872308;28;20209;-86
2021/06/26 05:20:44;;;;;;;14.37;11.93;;;;;;;22.25;59.04;99014.69;6871568;28;20232;-86
2021/06/26 05:24:07;;;;;;;13.13;11.93;;;;;;;22.72;57.45;99023.47;6871140;28;20200;-86
2021/06/26 05:27:29;;;;;;;12.50;11.03;;;;;;;22.91;56.96;99019.03;6871684;28;20682;-87
2021/06/26 05:30:52;;;;;;;13.23;11.93;;;;;;;23.24;55.71;99024.72;6871448;28;20244;-88
2021/06/26 05:34:18;;;;;;;14.70;13.33;;;;;;;22.98;57.15;99017.63;6867406;28;20209;-88
2021/06/26 05:37:41;;;;;;;13.63;11.40;;;;;;;23.63;54.42;99003.59;6862942;28;20206;-87
2021/06/26 05:41:05;;;;;;;14.80;13.27;;;;;;;23.84;54.37;99015.31;6879797;28;20231;-88
2021/06/26 05:44:26;;;;;;;15.47;13.27;;;;;;;23.65;55.51;99017.09;6870681;28;20212;-87
2021/06/26 05:47:52;;;;;;;13.67;12.47;;;;;;;24.28;53.86;99018.88;6885721;28;20224;-87
2021/06/26 05:51:17;;;;;;;14.67;13.27;;;;;;;24.06;54.68;99024.81;6898714;28;20284;-88
2021/06/26 05:54:41;;;;;;;14.03;12.73;;;;;;;24.16;54.00;98997.22;6898567;28;20220;-88
2021/06/26 05:58:02;;;;;;;14.97;13.47;;;;;;;24.67;53.14;99017.69;6898985;28;20216;-87
2021/06/26 06:01:24;;;;;;;14.07;12.70;;;;;;;24.65;52.70;99017.19;6898339;28;20229;-87
2021/06/26 06:04:47;;;;;;;14.33;12.93;;;;;;;24.55;53.79;99027.47;6898126;28;20205;-87
2021/06/26 06:08:09;;;;;;;14.90;13.40;;;;;;;24.42;52.94;99008.84;6898161;28;20232;-87
2021/06/26 06:11:31;;;;;;;15.23;13.77;;;;;;;24.67;51.09;99014.13;6897961;28;20223;-88
2021/06/26 06:14:52;;;;;;;14.73;13.23;;;;;;;25.14;51.79;99001.19;6898104;28;20214;-87
2021/06/26 06:18:22;;;;;;;15.13;13.63;;;;;;;24.97;50.55;99028.44;6868630;28;20207;-88
2021/06/26 06:21:45;;;;;;;14.40;13.20;;;;;;;24.80;51.65;98975.66;6869646;28;20230;-88
2021/06/26 06:25:10;;;;;;;15.67;14.17;;;;;;;24.76;51.30;99012.38;6880268;28;20218;-87
2021/06/26 06:28:32;;;;;;;15.10;13.80;;;;;;;24.54;51.55;99004.56;6874182;28;20235;-88
2021/06/26 06:31:53;;;;;;;14.63;13.33;;;;;;;24.83;50.71;99010.94;6873830;28;20618;-88
2021/06/26 06:35:15;;;;;;;14.57;13.20;;;;;;;26.02;47.99;99013.28;6874119;28;20205;-87
2021/06/26 06:38:38;;;;;;;14.13;12.67;;;;;;;26.02;48.47;99027.09;6873318;28;20209;-87
2021/06/26 06:42:00;;;;;;;13.70;12.37;;;;;;;26.30;47.35;99026.09;6873301;28;20223;-89
2021/06/26 06:45:22;;;;;;;14.70;13.30;;;;;;;26.23;46.45;98986.13;6850815;28;20206;-87
2021/06/26 06:48:43;;;;;;;14.73;13.33;;;;;;;25.49;48.92;99016.53;6846481;28;20327;-87
2021/06/26 06:52:06;;;;;;;14.73;13.43;;;;;;;25.28;47.79;99037.22;6846775;28;20890;-88
2021/06/26 06:55:29;;;;;;;16.07;14.47;;;;;;;24.97;48.63;99011.88;6847678;28;20213;-87
2021/06/26 06:58:50;;;;;;;16.60;15.10;;;;;;;25.07;48.71;99020.03;6846144;28;20657;-89
2021/06/26 07:02:12;;;;;;;18.40;16.50;;;;;;;24.32;49.86;99034.56;6845838;28;20254;-87
2021/06/26 07:05:34;;;;;;;18.03;16.23;;;;;;;24.02;51.26;99020.19;6846490;28;20219;-87
2021/06/26 07:08:55;;;;;;;17.57;15.77;;;;;;;25.16;48.31;99021.03;6846256;28;20236;-87
2021/06/26 07:12:18;;;;;;;17.20;15.50;;;;;;;24.41;49.60;99019.03;6846262;28;20233;-88
2021/06/26 07:15:47;;;;;;;15.97;14.50;;;;;;;24.55;49.56;99017.22;6845587;29;20228;-90
2021/06/26 07:19:09;;;;;;;12.83;11.63;;;;;;;25.44;46.20;98988.97;6859455;28;20195;-86
2021/06/26 07:22:31;;;;;;;12.57;11.40;;;;;;;27.19;43.43;99011.78;6872404;28;20221;-88
2021/06/26 07:25:53;;;;;;;13.67;12.40;;;;;;;25.43;45.82;99010.22;6873366;28;20247;-86
2021/06/26 07:29:16;;;;;;;10.83;9.93;;;;;;;26.39;44.68;98959.88;6873946;28;20246;-88
2021/06/26 07:32:56;;;;;;;10.80;9.77;;;;;;;27.68;40.00;99011.03;6871720;28;20229;-88
2021/06/26 07:40:10;;;;;;;13.17;10.03;;;;;;;26.48;41.91;99005.88;6872764;28;20268;-90
2021/06/26 07:43:34;;;;;;;8.80;7.97;;;;;;;26.73;42.00;98939.06;6872995;28;20222;-88
2021/06/26 07:46:57;;;;;;;8.60;7.80;;;;;;;27.77;39.04;98979.53;6868621;28;20205;-88
2021/06/26 07:50:19;;;;;;;8.53;7.73;;;;;;;28.64;37.01;98994.56;6846573;28;20237;-89
2021/06/26 07:53:40;;;;;;;9.43;8.57;;;;;;;27.50;38.33;98967.66;6847094;28;20675;-88
2021/06/26 07:57:06;;;;;;;7.80;7.07;;;;;;;28.07;39.05;98966.91;6852656;28;20199;-87
2021/06/26 08:00:28;;;;;;;7.23;6.63;;;;;;;28.45;37.17;98973.72;6873282;28;20205;-88
2021/06/26 08:03:51;;;;;;;7.97;7.27;;;;;;;28.77;36.96;98895.72;6872850;28;20224;-89
2021/06/26 08:07:13;;;;;;;8.97;8.27;;;;;;;28.30;39.89;98982.41;6877807;28;20204;-87
2021/06/26 08:10:34;;;;;;;7.93;7.23;;;;;;;29.78;37.08;98986.06;6873388;28;20235;-91
2021/06/26 08:13:57;;;;;;;8.50;7.80;;;;;;;29.13;33.08;98918.56;6873853;28;20217;-91
2021/06/26 08:17:19;;;;;;;8.83;7.93;;;;;;;28.95;36.85;98953.75;6873264;28;20208;-88
2021/06/26 08:20:48;;;;;;;9.50;8.13;;;;;;;29.70;34.59;98934.03;6871640;28;20326;-89
2021/06/26 08:24:18;;;;;;;8.30;7.50;;;;;;;29.64;35.30;98974.25;6874492;28;20203;-90
2021/06/26 08:27:40;;;;;;;7.70;7.10;;;;;;;29.12;34.91;98937.16;6886596;28;20312;-90
2021/06/26 08:31:01;;;;;;;7.93;7.13;;;;;;;29.77;34.91;98960.19;6872019;28;20607;-89
2021/06/26 08:34:23;;;;;;;7.60;7.00;;;;;;;29.98;34.50;98969.53;6871731;28;20215;-93
2021/06/26 08:37:52;;;;;;;7.73;7.03;;;;;;;29.87;34.25;98929.31;6873697;28;20222;-92
2021/06/26 08:41:16;;;;;;;8.37;7.57;;;;;;;29.18;33.03;98923.97;6872304;28;20223;-92
2021/06/26 08:44:39;;;;;;;7.30;6.60;;;;;;;29.08;34.67;98927.03;6871448;28;20574;-88
2021/06/26 08:48:05;;;;;;;7.10;6.50;;;;;;;30.41;34.41;98945.31;6871801;28;20730;-87
2021/06/26 08:51:59;;;;;;;6.93;6.40;;;;;;;30.23;33.02;98859.41;6871619;28;20319;-86
2021/06/26 08:55:22;;;;;;;6.57;5.97;;;;;;;30.68;33.15;98913.50;6838817;28;20214;-90
2021/06/26 08:58:54;;;;;;;7.70;6.97;;;;;;;29.93;34.10;98928.00;6872303;28;20209;-87
2021/06/26 09:02:21;;;;;;;7.90;7.20;;;;;;;29.85;34.59;98900.19;6892835;28;20710;-87
2021/06/26 09:05:50;;;;;;;8.20;7.40;;;;;;;29.56;35.95;98877.78;6894461;28;20207;-90
2021/06/26 09:09:11;;;;;;;6.60;5.97;;;;;;;30.21;33.25;98918.19;6894041;28;20314;-88
2021/06/26 09:12:37;;;;;;;6.57;6.07;;;;;;;29.52;34.06;98915.66;6884361;28;20229;-88
2021/06/26 09:16:07;;;;;;;6.33;5.83;;;;;;;29.89;34.67;98949.25;6900933;28;20225;-87
2021/06/26 09:19:31;;;;;;;6.60;6.03;;;;;;;30.02;34.55;98911.31;6885857;28;20213;-89
2021/06/26 09:22:55;;;;;;;6.00;5.50;;;;;;;30.29;33.29;98870.03;6875765;28;20224;-89
2021/06/26 09:26:16;;;;;;;6.33;5.73;;;;;;;30.86;31.76;98887.22;6876239;28;20213;-86
2021/06/26 09:29:49;;;;;;;7.00;6.40;;;;;;;29.06;34.00;98893.19;6873904;28;20236;-89
2021/06/26 09:33:15;;;;;;;6.57;5.97;;;;;;;30.13;34.19;98909.84;6880193;28;20225;-85
2021/06/26 09:37:03;;;;;;;6.50;6.00;;;;;;;30.84;33.51;98934.88;6899296;23;20235;-87
2021/06/26 09:40:29;;;;;;;6.20;5.70;;;;;;;29.49;33.19;98903.25;6868491;28;20232;-92
2021/06/26 09:43:50;;;;;;;7.23;6.27;;;;;;;28.29;36.23;98920.56;6859334;28;20207;-87
2021/06/26 09:47:17;;;;;;;6.70;6.10;;;;;;;29.90;33.83;98936.97;6853722;28;20216;-81
2021/06/26 09:50:40;;;;;;;6.10;5.60;;;;;;;29.51;34.45;98939.88;6849401;28;20226;-80
2021/06/26 09:54:06;;;;;;;7.00;6.40;;;;;;;29.04;34.37;98907.44;6849854;28;20661;-81
2021/06/26 09:57:34;;;;;;;6.63;6.13;;;;;;;29.33;33.49;98876.28;6864665;28;20220;-82
2021/06/26 10:00:57;;;;;;;6.47;5.87;;;;;;;29.51;33.14;98934.31;6887954;22;20240;-82
2021/06/26 10:04:20;;;;;;;6.00;5.50;;;;;;;28.77;34.21;98854.88;6875282;28;20236;-82
2021/06/26 10:07:44;;;;;;;6.50;6.00;;;;;;;28.95;36.29;98927.94;6849229;29;20209;-84
2021/06/26 10:11:05;;;;;;;7.63;6.00;;;;;;;28.11;36.32;98846.72;6842236;29;20286;-85
2021/06/26 10:14:27;;;;;;;6.57;6.07;;;;;;;28.99;35.90;98912.28;6843081;28;20231;-83
2021/06/26 10:17:49;;;;;;;7.03;6.33;;;;;;;28.95;35.31;98909.34;6842320;29;20210;-84
2021/06/26 10:21:12;;;;;;;6.37;5.87;;;;;;;28.84;36.54;98899.63;6841986;29;20223;-84
2021/06/26 10:24:34;;;;;;;6.63;6.03;;;;;;;29.55;35.82;98865.03;6842824;28;20220;-85
2021/06/26 10:28:02;;;;;;;6.33;5.83;;;;;;;30.65;34.18;98891.88;6863422;28;20202;-86
2021/06/26 10:31:31;;;;;;;6.07;5.57;;;;;;;30.31;34.00;98867.72;6866891;28;20227;-84
2021/06/26 10:34:53;;;;;;;6.80;6.17;;;;;;;28.85;35.10;98881.84;6872554;28;20231;-81
2021/06/26 10:38:16;;;;;;;6.63;6.13;;;;;;;29.18;35.78;98865.66;6877115;28;20211;-83
2021/06/26 10:41:38;;;;;;;6.40;5.90;;;;;;;29.55;34.43;98899.19;6884444;28;20207;-82
2021/06/26 10:44:59;;;;;;;6.23;5.77;;;;;;;28.48;35.97;98893.44;6879621;28;20227;-85
2021/06/26 10:48:23;;;;;;;6.20;5.70;;;;;;;27.51;37.97;98852.94;6877486;28;20234;-85
2021/06/26 10:51:45;;;;;;;6.07;5.50;;;;;;;28.61;34.24;98878.66;6876885;28;20380;-85
2021/06/26 10:55:09;;;;;;;6.13;5.60;;;;;;;29.90;33.30;98889.72;6872623;28;20228;-84
2021/06/26 10:58:33;;;;;;;6.20;5.70;;;;;;;30.21;34.68;98890.38;6871498;28;20233;-84
2021/06/26 11:01:56;;;;;;;6.80;6.20;;;;;;;29.80;35.28;98875.34;6869255;28;20218;-84
2021/06/26 11:05:27;;;;;;;6.30;5.70;;;;;;;29.73;34.72;98875.81;6869022;28;20233;-85
2021/06/26 11:09:00;;;;;;;6.07;5.50;;;;;;;28.42;35.66;98858.66;6869850;28;20226;-84
2021/06/26 11:12:23;;;;;;;7.37;5.50;;;;;;;30.25;34.49;98869.06;6867876;28;20205;-85
2021/06/26 11:15:45;;;;;;;6.80;6.20;;;;;;;30.93;32.63;98876.34;6868168;28;20238;-84
2021/06/26 11:19:07;;;;;;;6.10;5.60;;;;;;;31.57;31.99;98874.97;6867982;28;20216;-84
2021/06/26 11:22:29;;;;;;;6.80;5.43;;;;;;;31.99;30.94;98880.22;6855842;28;20216;-85
2021/06/26 11:25:50;;;;;;;5.60;5.20;;;;;;;32.41;30.57;98878.16;6840986;29;20237;-83
2021/06/26 11:29:24;;;;;;;5.73;5.23;;;;;;;31.79;31.18;98855.94;6839984;29;20223;-84
2021/06/26 11:32:45;;;;;;;7.93;5.70;;;;;;;31.84;31.45;98888.41;6841063;29;20205;-84
2021/06/26 11:36:09;;;;;;;6.57;6.07;;;;;;;30.42;33.12;98873.78;6840733;29;20312;-86
2021/06/26 11:39:32;;;;;;;5.77;5.30;;;;;;;30.21;33.92;98884.81;6843367;28;20213;-86
2021/06/26 11:42:55;;;;;;;6.43;5.93;;;;;;;31.01;31.59;98862.38;6886289;28;20216;-85
2021/06/26 11:46:18;;;;;;;5.80;5.30;;;;;;;32.40;30.77;98870.94;6871379;28;20222;-85
2021/06/26 11:49:42;;;;;;;5.63;5.23;;;;;;;32.79;29.26;98806.88;6870214;28;20240;-84
2021/06/26 11:53:15;;;;;;;7.40;6.00;;;;;;;30.95;32.71;98872.09;6876131;28;20189;-85
2021/06/26 11:56:38;;;;;;;5.50;5.10;;;;;;;30.86;33.27;98860.19;6874852;28;20703;-85
2021/06/26 12:00:00;;;;;;;5.40;5.00;;;;;;;30.93;31.67;98838.19;6879086;28;20225;-84
2021/06/26 12:03:23;;;;;;;4.90;4.53;;;;;;;31.11;31.37;98853.66;6895748;28;20208;-85
2021/06/26 12:06:46;;;;;;;5.07;4.67;;;;;;;31.72;30.44;98811.06;6869822;28;20238;-85
2021/06/26 12:10:08;;;;;;;5.33;4.93;;;;;;;31.27;31.52;98834.38;6854331;28;20230;-85
2021/06/26 12:13:30;;;;;;;4.70;4.40;;;;;;;31.84;30.96;98841.78;6876225;28;20203;-84
2021/06/26 12:16:54;;;;;;;5.97;5.47;;;;;;;30.07;33.33;98847.97;6874917;28;20380;-84
2021/06/26 12:20:17;;;;;;;7.47;4.73;;;;;;;30.38;31.97;98848.56;6874787;28;20207;-84
2021/06/26 12:23:44;;;;;;;4.53;4.23;;;;;;;30.81;29.12;98826.97;6871560;28;20211;-84
2021/06/26 12:27:11;;;;;;;4.80;4.50;;;;;;;30.51;31.58;98830.84;6871850;28;20207;-85
2021/06/26 12:30:32;;;;;;;5.70;5.30;;;;;;;30.64;31.69;98807.56;6871806;28;20719;-85
2021/06/26 12:34:01;;;;;;;5.87;5.37;;;;;;;30.08;32.67;98818.19;6864236;28;20208;-84
2021/06/26 12:37:32;;;;;;;4.97;4.57;;;;;;;30.73;31.03;98827.00;6838380;29;20205;-87
2021/06/26 12:40:53;;;;;;;5.10;4.60;;;;;;;31.47;31.38;98814.03;6872498;28;20573;-84
2021/06/26 12:44:19;;;;;;;5.27;4.87;;;;;;;30.39;34.52;98819.59;6889530;28;20578;-86
2021/06/26 12:47:41;;;;;;;5.40;5.00;;;;;;;31.74;31.77;98817.13;6890661;28;20207;-85
2021/06/26 12:51:06;;;;;;;5.23;4.83;;;;;;;31.19;31.20;98824.94;6889247;28;20253;-85
2021/06/26 12:54:29;;;;;;;5.10;4.70;;;;;;;30.54;32.26;98815.44;6888928;28;20238;-85
2021/06/26 12:57:51;;;;;;;4.53;4.20;;;;;;;30.51;32.13;98814.16;6879264;28;20546;-84
2021/06/26 13:01:13;;;;;;;4.97;4.57;;;;;;;30.26;31.53;98826.19;6889250;28;20205;-85
2021/06/26 13:04:39;;;;;;;4.90;4.30;;;;;;;30.79;32.31;98811.75;6887261;28;20731;-84
2021/06/26 13:08:02;;;;;;;4.77;4.37;;;;;;;31.72;30.75;98821.41;6890001;28;20246;-85
2021/06/26 13:11:30;;;;;;;4.50;4.20;;;;;;;30.90;30.47;98813.00;6889497;28;20227;-83
2021/06/26 13:14:56;;;;;;;5.33;4.87;;;;;;;30.06;32.47;98801.00;6889909;28;20223;-83
2021/06/26 13:18:17;;;;;;;4.53;4.20;;;;;;;31.65;30.34;98799.63;6868444;28;20568;-85
2021/06/26 13:21:40;;;;;;;5.07;4.67;;;;;;;30.93;30.96;98806.72;6862810;28;20285;-85
2021/06/26 13:25:01;;;;;;;4.90;4.50;;;;;;;32.02;30.41;98797.81;6859376;28;20277;-85
2021/06/26 13:28:24;;;;;;;4.70;4.40;;;;;;;31.35;30.77;98791.69;6862452;28;20201;-85
2021/06/26 13:31:46;;;;;;;4.70;4.40;;;;;;;31.19;30.23;98816.56;6862037;28;20231;-84
2021/06/26 13:35:09;;;;;;;4.97;4.57;;;;;;;31.59;30.33;98805.75;6862369;28;20244;-86
2021/06/26 13:38:31;;;;;;;4.30;4.00;;;;;;;32.67;28.20;98769.75;6863109;28;20212;-86
2021/06/26 13:41:53;;;;;;;4.93;4.43;;;;;;;32.62;29.59;98806.28;6863621;28;20679;-86
2021/06/26 13:45:16;;;;;;;4.87;4.47;;;;;;;31.97;30.52;98804.41;6862930;28;20693;-86
2021/06/26 13:48:37;;;;;;;4.60;4.20;;;;;;;30.23;32.23;98789.88;6863556;28;20605;-85
2021/06/26 13:51:59;;;;;;;4.30;3.90;;;;;;;30.81;30.23;98804.69;6860450;28;20235;-85
2021/06/26 13:55:21;;;;;;;4.20;3.90;;;;;;;29.61;32.47;98758.13;6861752;28;20240;-85
2021/06/26 13:58:42;;;;;;;4.27;3.97;;;;;;;30.86;31.10;98790.56;6862825;28;20237;-86
2021/06/26 14:02:05;;;;;;;4.07;3.77;;;;;;;31.25;29.66;98759.47;6888473;28;20237;-87
2021/06/26 14:05:27;;;;;;;4.40;4.07;;;;;;;30.52;30.46;98801.84;6881620;28;20222;-85
2021/06/26 14:08:49;;;;;;;4.33;3.70;;;;;;;31.30;30.00;98791.94;6862701;28;20210;-88
2021/06/26 14:12:11;;;;;;;3.97;3.67;;;;;;;32.39;29.59;98783.59;6888356;28;20221;-85
2021/06/26 14:15:32;;;;;;;4.00;3.70;;;;;;;32.74;28.03;98783.94;6888351;28;20397;-85
2021/06/26 14:18:55;;;;;;;3.83;3.53;;;;;;;33.35;26.74;98780.75;6874538;28;20206;-84
2021/06/26 14:22:17;;;;;;;4.03;3.73;;;;;;;33.05;27.81;98771.03;6861107;28;20221;-86
2021/06/26 14:25:39;;;;;;;5.13;4.73;;;;;;;31.86;30.20;98763.34;6861243;28;20225;-85
2021/06/26 14:29:00;;;;;;;5.23;4.83;;;;;;;29.99;33.26;98714.50;6861775;28;20218;-85
2021/06/26 14:32:22;;;;;;;5.03;4.63;;;;;;;30.26;32.89;98764.16;6861538;28;20209;-85
2021/06/26 14:35:45;;;;;;;4.80;4.30;;;;;;;30.09;32.91;98775.34;6861782;28;20222;-87
2021/06/26 14:39:07;;;;;;;4.50;4.20;;;;;;;30.62;32.09;98748.59;6867257;28;20550;-85
2021/06/26 14:42:28;;;;;;;5.07;4.57;;;;;;;30.50;33.19;98747.69;6863669;28;20216;-84
2021/06/26 14:45:51;;;;;;;5.03;4.53;;;;;;;30.65;33.02;98727.63;6869203;28;20730;-86
2021/06/26 14:49:14;;;;;;;4.70;4.30;;;;;;;31.38;32.09;98744.44;6883390;28;20203;-85
2021/06/26 14:52:37;;;;;;;5.03;4.37;;;;;;;32.01;30.56;98741.19;6885869;28;20268;-86
2021/06/26 14:55:59;;;;;;;5.07;4.57;;;;;;;30.93;32.10;98739.88;6866858;28;20717;-85
2021/06/26 14:59:21;;;;;;;4.80;4.40;;;;;;;31.01;32.02;98742.59;6876192;28;20215;-85
2021/06/26 15:02:42;;;;;;;4.60;4.30;;;;;;;30.48;32.95;98713.81;6870648;28;20208;-83
2021/06/26 15:06:05;;;;;;;4.80;4.40;;;;;;;29.90;32.85;98695.06;6865527;28;20623;-86
2021/06/26 15:09:28;;;;;;;4.37;4.00;;;;;;;30.64;32.12;98739.88;6865212;28;20227;-86
2021/06/26 15:12:50;;;;;;;5.03;4.20;;;;;;;30.23;32.16;98740.63;6864784;28;20213;-88
2021/06/26 15:16:12;;;;;;;4.87;4.47;;;;;;;30.72;31.59;98731.53;6865888;28;20232;-84
2021/06/26 15:19:34;;;;;;;5.20;4.80;;;;;;;30.71;32.21;98727.09;6864555;28;20245;-88
2021/06/26 15:22:56;;;;;;;4.63;4.30;;;;;;;31.21;31.94;98718.72;6865465;28;20639;-86
2021/06/26 15:26:19;;;;;;;4.73;4.43;;;;;;;30.79;32.53;98715.09;6864611;28;20258;-86
2021/06/26 15:29:40;;;;;;;4.60;4.30;;;;;;;31.15;31.67;98726.44;6864378;28;20244;-85
2021/06/26 15:33:02;;;;;;;5.00;4.60;;;;;;;31.21;31.07;98658.25;6863913;28;20214;-86
2021/06/26 15:36:32;;;;;;;4.63;4.23;;;;;;;29.17;34.90;98727.91;6890159;23;20293;-85
2021/06/26 15:40:01;;;;;;;6.63;4.80;;;;;;;30.47;32.57;98726.91;6892101;28;20206;-83
2021/06/26 15:43:27;;;;;;;4.40;4.10;;;;;;;30.18;33.25;98684.34;6891368;28;20220;-84
2021/06/26 15:46:48;;;;;;;5.20;4.80;;;;;;;30.69;32.13;98679.31;6891964;28;20214;-84
2021/06/26 15:50:12;;;;;;;5.03;4.60;;;;;;;31.03;32.91;98726.41;6891113;28;20237;-83
2021/06/26 15:53:37;;;;;;;9.00;8.20;;;;;;;30.02;33.31;98659.03;6890918;28;20676;-83
2021/06/26 15:56:59;;;;;;;4.47;4.07;;;;;;;30.58;31.83;98666.09;6891571;28;20206;-84
2021/06/26 16:00:25;;;;;;;5.10;4.70;;;;;;;30.68;32.65;98715.84;6891388;28;20203;-84
2021/06/26 16:04:01;;;;;;;4.97;4.47;;;;;;;30.33;33.42;98719.94;6891104;28;20297;-84
2021/06/26 16:07:22;;;;;;;5.20;4.70;;;;;;;30.26;34.24;98723.25;6864636;28;20250;-82
2021/06/26 16:10:44;;;;;;;4.80;4.40;;;;;;;30.52;32.89;98657.13;6863994;28;20234;-83
2021/06/26 16:14:10;;;;;;;4.90;4.50;;;;;;;30.76;33.55;98712.16;6869478;28;20588;-83
2021/06/26 16:17:34;;;;;;;4.93;4.53;;;;;;;30.34;32.87;98640.88;6870188;28;20647;-82
2021/06/26 16:20:56;;;;;;;5.10;4.70;;;;;;;30.37;32.76;98632.66;6868396;28;20210;-82
2021/06/26 16:24:20;;;;;;;4.80;4.50;;;;;;;30.99;32.39;98693.97;6870600;28;20211;-82
2021/06/26 16:27:42;;;;;;;4.77;4.37;;;;;;;30.62;32.61;98667.88;6872992;28;20216;-82
2021/06/26 16:31:05;;;;;;;5.10;4.60;;;;;;;30.54;32.65;98654.03;6872788;28;20235;-83
2021/06/26 16:34:34;;;;;;;5.60;5.10;;;;;;;31.43;31.70;98693.28;6838260;28;20212;-83
2021/06/26 16:38:03;;;;;;;5.47;4.80;;;;;;;31.60;32.18;98693.88;6872981;28;20347;-83
2021/06/26 16:41:25;;;;;;;4.83;4.43;;;;;;;30.30;33.17;98629.63;6872975;28;20218;-83
2021/06/26 16:45:05;;;;;;;5.50;4.60;;;;;;;30.31;33.48;98681.31;6871672;28;20209;-85
2021/06/26 16:48:31;;;;;;;4.73;4.33;;;;;;;30.69;34.20;98681.28;6871710;28;20256;-84
2021/06/26 16:51:54;;;;;;;5.33;4.83;;;;;;;30.17;33.89;98633.47;6869352;28;20223;-85
2021/06/26 16:55:16;;;;;;;5.03;4.63;;;;;;;31.39;32.45;98684.78;6874993;28;20212;-84
2021/06/26 16:58:38;;;;;;;5.37;4.93;;;;;;;31.02;32.61;98646.75;6883048;28;20206;-85
2021/06/26 17:02:10;;;;;;;5.10;4.70;;;;;;;31.62;31.79;98697.16;6870910;28;20210;-86
2021/06/26 17:05:32;;;;;;;7.67;6.97;;;;;;;30.54;31.89;98624.19;6872169;28;20224;-85
2021/06/26 17:08:55;;;;;;;5.33;4.83;;;;;;;28.89;34.26;98571.94;6870613;28;20207;-85
2021/06/26 17:12:26;;;;;;;5.70;5.20;;;;;;;29.73;34.55;98605.38;6869757;28;20588;-85
2021/06/26 17:15:49;;;;;;;7.73;6.27;;;;;;;30.69;32.82;98664.56;6867998;28;20215;-88
2021/06/26 17:19:19;;;;;;;8.47;7.70;;;;;;;30.39;34.06;98677.69;6886357;28;20205;-82
2021/06/26 17:23:02;;;;;;;5.90;5.40;;;;;;;30.42;33.08;98679.00;6895507;28;20224;-82
2021/06/26 17:30:16;;;;;;;5.57;5.13;;;;;;;30.17;32.41;98588.13;6892782;28;20225;-84
2021/06/26 17:33:56;;;;;;;4.73;4.30;;;;;;;28.79;35.70;98682.47;6894481;28;20210;-83
2021/06/26 17:38:14;;;;;;;5.77;5.27;;;;;;;29.48;34.74;98672.97;6894881;28;20306;-83
2021/06/26 17:49:32;;;;;;;10.83;9.80;;;;;;;28.63;36.17;98593.34;6811751;29;20284;-84
2021/06/26 17:53:48;;;;;;;6.90;6.30;;;;;;;29.28;36.23;98688.38;6829367;28;20237;-83
2021/06/26 17:57:10;;;;;;;6.90;6.30;;;;;;;29.69;36.10;98630.25;6869661;28;20203;-84
2021/06/26 18:08:01;;;;;;;8.47;7.63;;;;;;;29.85;36.44;98675.00;6866025;28;20201;-82
2021/06/26 18:23:03;;;;;;;9.53;8.63;;;;;;;28.93;39.13;98655.38;6872766;28;20247;-87
2021/06/26 18:30:52;;;;;;;8.00;7.30;;;;;;;29.09;41.07;98651.81;6851143;28;20324;-82
2021/06/26 18:38:53;;;;;;;23.00;20.60;;;;;;;28.02;43.61;98585.25;6871196;28;20216;-82
2021/06/26 18:42:21;;;;;;;17.00;15.20;;;;;;;28.81;43.68;98714.31;6865952;28;20203;-82
2021/06/26 18:45:46;;;;;;;12.60;11.47;;;;;;;28.09;46.09;98734.50;6825534;28;20532;-83
2021/06/26 18:49:08;;;;;;;12.37;8.57;;;;;;;28.17;45.79;98717.91;6870885;28;20250;-82
2021/06/26 18:52:29;;;;;;;9.60;8.70;;;;;;;27.79;45.81;98677.16;6869900;28;20225;-82
2021/06/26 18:59:30;;;;;;;9.60;8.70;;;;;;;27.72;47.48;98733.00;6840925;29;20255;-83
2021/06/26 19:02:51;;;;;;;10.60;8.57;;;;;;;27.31;48.34;98739.91;6877672;28;20216;-83
2021/06/26 19:06:14;;;;;;;9.37;7.93;;;;;;;27.42;48.08;98717.16;6852224;28;20209;-82
2021/06/26 19:09:37;;;;;;;9.00;8.10;;;;;;;27.34;48.63;98742.03;6843729;29;20214;-84
2021/06/26 19:13:00;;;;;;;8.93;8.13;;;;;;;26.72;48.52;98677.38;6849845;28;20221;-85
2021/06/26 19:16:30;;;;;;;9.10;8.10;;;;;;;26.49;50.53;98719.09;6846713;28;20202;-84
2021/06/26 19:19:52;;;;;;;8.80;7.77;;;;;;;26.56;50.50;98717.59;6844272;28;20205;-84
2021/06/26 19:23:15;;;;;;;9.40;8.37;;;;;;;26.83;50.29;98733.31;6844881;28;20601;-84
2021/06/26 19:26:37;;;;;;;9.43;8.40;;;;;;;26.15;51.35;98667.03;6844306;28;20290;-83
2021/06/26 19:30:05;;;;;;;10.37;9.27;;;;;;;26.57;51.04;98737.75;6865094;28;20205;-83
2021/06/26 19:33:27;;;;;;;10.93;9.17;;;;;;;26.49;51.02;98742.03;6870337;28;20211;-83
2021/06/26 19:36:49;;;;;;;9.10;8.07;;;;;;;26.11;51.68;98712.16;6872575;28;20231;-83
2021/06/26 19:40:11;;;;;;;7.90;7.20;;;;;;;26.12;51.57;98717.38;6871568;28;20225;-84
2021/06/26 19:43:36;;;;;;;8.47;7.77;;;;;;;25.98;51.32;98701.94;6870567;28;20220;-82
2021/06/26 19:46:59;;;;;;;8.97;8.20;;;;;;;26.11;51.51;98720.44;6870618;28;20223;-82
2021/06/26 19:50:22;;;;;;;9.60;8.80;;;;;;;25.74;52.53;98757.34;6868148;28;20216;-82
2021/06/26 19:53:44;;;;;;;9.40;8.53;;;;;;;25.51;52.79;98724.34;6869562;28;20388;-84
2021/06/26 19:57:08;;;;;;;10.10;9.10;;;;;;;25.81;52.64;98759.69;6868812;28;20212;-84
2021/06/26 20:00:30;;;;;;;10.77;9.23;;;;;;;25.72;52.60;98747.72;6874008;28;20670;-83
2021/06/26 20:04:00;;;;;;;9.77;8.53;;;;;;;25.72;53.13;98778.91;6875829;28;20359;-82
2021/06/26 20:07:22;;;;;;;11.47;8.87;;;;;;;25.87;51.98;98758.47;6868008;28;20193;-81
2021/06/26 20:10:51;;;;;;;8.67;7.83;;;;;;;25.57;52.90;98756.25;6866648;28;20300;-81
2021/06/26 20:14:13;;;;;;;9.40;8.40;;;;;;;25.73;52.48;98790.78;6863436;28;20584;-81